ムルマンスク の空港の天気 - METARとTAF

ムルマンスク空港 ( ULMM / MMK ) - ロシア ムルマンスク
飛行場実況気象(Metar)
観測時間04/25 19:00 MSK (04/25 16:00 UTC)
風向・風速北北西 1m/s
視程10km以上
天気現象
全天の4割程度の雲 雲底高度 790m
気温2℃
湿度48%
気圧1012hPa
METARULMM 251600Z 34001MPS 9999 SCT026CB 02/M08 Q1012 R31/150063 NOSIG RMK QFE752
過去の天気等 Google飛行場航空写真 Wunderground天気予報

過去48時間のMETAR

飛行場予報(TAF)
発表時間: 4/25 16:50 MSK (4/25 13:50 UTC)
予報対象時間: 25日18時 MSK ~ 26日18時 MSK
風向・風速北北東 3m/s
視程10km以上
全天の8割程度の雲 雲底高度 460m
25日18時 MSK ~ 25日23時 MSK に一時的に
風向・風速北北西 4m/s 瞬間風速 9m/s
視程2,100m
天気現象弱いしゅう雪
全天の8割程度の雲 雲底高度 180m
全天の8割程度の積乱雲 雲底高度 460m
25日23時 MSK ~ 26日9時 MSK に一時的に
風向・風速東南東 2m/s
視程1,000m
天気現象弱いしゅう雪 もや
全天の8割程度の雲 雲底高度 90m
全天の8割程度の積乱雲 雲底高度 460m
26日9時 MSK ~ 26日18時 MSK に一時的に
風向・風速東 4m/s
TAF ULMM 251350Z 2515/2615 03003MPS 9999 BKN015
TEMPO 2515/2520 33004G09MPS 2100 -SHSN BKN006 BKN015CB
TEMPO 2520/2606 12002MPS 1000 -SHSN BR BKN003 BKN015CB
TEMPO 2606/2615 08004MPS